New York/John F Kennedy International Airport

Airport
ICAO code: 
KJFK
IATA Code: 
JFK
Summary
ICAO Region: 
NAM
Territory: 
Location: 
Jamaica, Queens, New York, New York
Serving: 
New York
Elevation: 
13 ft
Coordinates: 
Aerial View: 
40° 38' 39.884" N, 73° 46' 57.882" W
Airport BS: 
Bird Strike
Airport LOS: 
Parallel Runway Operation
Airport RE: 
Engineered Materials Arresting System
Metar
Observation
KJFK 180351Z 29022G31KT 10SM OVC046 02/M07 A2941 RMK AO2 PK WND 28039/0321 PRESRR SLP958 T00171067
Station
New York, Kennedy International Airport
Date/Time
2022-01-18 03:51:00
Wind direction
290°
Wind speed
22 kts
Lowest cloud amount
overcast
Temperature
1.7°C
Dew point
-6.7°C
Humidity
53%
Weather condition
n/a

International airport serving the city of New York, NY, USA.

Climatology

Humid “subtropical” climate (Köppen climate classification Cfa) - characterized by hot, humid summers and cool winters. Significant amounts of precipitation occur in all seasons in most areas. Winter rainfall (and sometimes snowfall) is associated with large storms that the westerlies steer from west to east. Most summer rainfall occurs during thunderstorms.

Runways

Designator Length Width Surface Rops
04R/22L 2560 61 ASP Yes/Yes
13L/31R 3048 46 ASP Yes/Yes
04L/22R 3460 46 ASP Yes/Yes
13R/31L 4442 46 ASP Yes/Yes

SKYbrary Partners:

Safety knowledge contributed by: